WARNING - Change wsUserSettings.php: $SITE["topfolder"] from : public_html./ to: ./
Iedere zaterdag na 11 uur op radio zuidwest.

Onweer radar Meer informatie blitzortung!


Regen radar Meer informatie rain snow radar


Bezoek onze andere website:

Template documentation
and downloads


U vindt ons ook hier:

Het Weer Aktueel

UK Metoffice

European Weather Network

WeatherCloud

Weather Underground

Austria Weather Network

AWEKAS

Citizen Weather Observer Program (CWOP)

HAMweather, WeatherForYou, PWS Weather

Wetterpage 24

Roosendaal nieuws

VWKWEB

RadioZuidWestFM



METAR rapporten vliegvelden

   
EHWO - Bergen op Zoom
Gewijzigd: 29-01-2023 23:29
Nevel, Grotendeels bewolkt  
Nevel, Grotendeels bewolkt  
   Wind: ZW 20.4 km/h
Wind: ZW 20.4 km/h
Temperatuur: 5°C
Voelt als: 1°C
Dauwpunt: 4°C
Vochtigheid: 93%
Barometer: 1020 hPa
Bewolking: Grotendeels bewolkt
Zicht: 7 km
Bewolking: Licht bewolkt 600 ft,
Grotendeels bewolkt 700 ft,
Grotendeels bewolkt 900 ft
EHWO 292229Z AUTO 22011KT 200V260 7000 BR FEW006 BKN007 BKN009 05/04 Q1020 GRN
EHWO - Woensdrecht
Gewijzigd: 29-01-2023 23:29
Nevel, Grotendeels bewolkt  
Nevel, Grotendeels bewolkt  
   Wind: ZW 20.4 km/h
Wind: ZW 20.4 km/h
Temperatuur: 5°C
Voelt als: 1°C
Dauwpunt: 4°C
Vochtigheid: 93%
Barometer: 1020 hPa
Bewolking: Grotendeels bewolkt
Zicht: 7 km
Bewolking: Licht bewolkt 600 ft,
Grotendeels bewolkt 700 ft,
Grotendeels bewolkt 900 ft
EHWO 292229Z AUTO 22011KT 200V260 7000 BR FEW006 BKN007 BKN009 05/04 Q1020 GRN
EHWO - Steenbergen
Gewijzigd: 29-01-2023 23:29
Nevel, Grotendeels bewolkt  
Nevel, Grotendeels bewolkt  
   Wind: ZW 20.4 km/h
Wind: ZW 20.4 km/h
Temperatuur: 5°C
Voelt als: 1°C
Dauwpunt: 4°C
Vochtigheid: 93%
Barometer: 1020 hPa
Bewolking: Grotendeels bewolkt
Zicht: 7 km
Bewolking: Licht bewolkt 600 ft,
Grotendeels bewolkt 700 ft,
Grotendeels bewolkt 900 ft
EHWO 292229Z AUTO 22011KT 200V260 7000 BR FEW006 BKN007 BKN009 05/04 Q1020 GRN
EHWO - Oud-Gastel
Gewijzigd: 29-01-2023 23:29
Nevel, Grotendeels bewolkt  
Nevel, Grotendeels bewolkt  
   Wind: ZW 20.4 km/h
Wind: ZW 20.4 km/h
Temperatuur: 5°C
Voelt als: 1°C
Dauwpunt: 4°C
Vochtigheid: 93%
Barometer: 1020 hPa
Bewolking: Grotendeels bewolkt
Zicht: 7 km
Bewolking: Licht bewolkt 600 ft,
Grotendeels bewolkt 700 ft,
Grotendeels bewolkt 900 ft
EHWO 292229Z AUTO 22011KT 200V260 7000 BR FEW006 BKN007 BKN009 05/04 Q1020 GRN
EHWO - Oudenbosch
Gewijzigd: 29-01-2023 23:29
Nevel, Grotendeels bewolkt  
Nevel, Grotendeels bewolkt  
   Wind: ZW 20.4 km/h
Wind: ZW 20.4 km/h
Temperatuur: 5°C
Voelt als: 1°C
Dauwpunt: 4°C
Vochtigheid: 93%
Barometer: 1020 hPa
Bewolking: Grotendeels bewolkt
Zicht: 7 km
Bewolking: Licht bewolkt 600 ft,
Grotendeels bewolkt 700 ft,
Grotendeels bewolkt 900 ft
EHWO 292229Z AUTO 22011KT 200V260 7000 BR FEW006 BKN007 BKN009 05/04 Q1020 GRN
EHWO - Rucphen
Gewijzigd: 29-01-2023 23:29
Nevel, Grotendeels bewolkt  
Nevel, Grotendeels bewolkt  
   Wind: ZW 20.4 km/h
Wind: ZW 20.4 km/h
Temperatuur: 5°C
Voelt als: 1°C
Dauwpunt: 4°C
Vochtigheid: 93%
Barometer: 1020 hPa
Bewolking: Grotendeels bewolkt
Zicht: 7 km
Bewolking: Licht bewolkt 600 ft,
Grotendeels bewolkt 700 ft,
Grotendeels bewolkt 900 ft
EHWO 292229Z AUTO 22011KT 200V260 7000 BR FEW006 BKN007 BKN009 05/04 Q1020 GRN
EHWO - Bergen op Zoom
Gewijzigd: 29-01-2023 23:29
Nevel, Grotendeels bewolkt  
Nevel, Grotendeels bewolkt  
   Wind: ZW 20.4 km/h
Wind: ZW 20.4 km/h
Temperatuur: 5°C
Voelt als: 1°C
Dauwpunt: 4°C
Vochtigheid: 93%
Barometer: 1020 hPa
Bewolking: Grotendeels bewolkt
Zicht: 7 km
Bewolking: Licht bewolkt 600 ft,
Grotendeels bewolkt 700 ft,
Grotendeels bewolkt 900 ft
EHWO 292229Z AUTO 22011KT 200V260 7000 BR FEW006 BKN007 BKN009 05/04 Q1020 GRN
EHWO - Fijnaart
Gewijzigd: 29-01-2023 23:29
Nevel, Grotendeels bewolkt  
Nevel, Grotendeels bewolkt  
   Wind: ZW 20.4 km/h
Wind: ZW 20.4 km/h
Temperatuur: 5°C
Voelt als: 1°C
Dauwpunt: 4°C
Vochtigheid: 93%
Barometer: 1020 hPa
Bewolking: Grotendeels bewolkt
Zicht: 7 km
Bewolking: Licht bewolkt 600 ft,
Grotendeels bewolkt 700 ft,
Grotendeels bewolkt 900 ft
EHWO 292229Z AUTO 22011KT 200V260 7000 BR FEW006 BKN007 BKN009 05/04 Q1020 GRN
EHWO - Ossendrecht
Gewijzigd: 29-01-2023 23:29
Nevel, Grotendeels bewolkt  
Nevel, Grotendeels bewolkt  
   Wind: ZW 20.4 km/h
Wind: ZW 20.4 km/h
Temperatuur: 5°C
Voelt als: 1°C
Dauwpunt: 4°C
Vochtigheid: 93%
Barometer: 1020 hPa
Bewolking: Grotendeels bewolkt
Zicht: 7 km
Bewolking: Licht bewolkt 600 ft,
Grotendeels bewolkt 700 ft,
Grotendeels bewolkt 900 ft
EHWO 292229Z AUTO 22011KT 200V260 7000 BR FEW006 BKN007 BKN009 05/04 Q1020 GRN

Script ontwikkeld door  Saratoga-weather.org Aangepast voor de template door  Weerstation Leuven

Apparatuur in gebruik:

Weerstation
Davis VP2

Weerprogramma
Weather Display

Weercomputer
Shuttle

Webleverancier
WeservIT

Davis VP2

Weather Display

Shuttle

WeservIT